Time;durP1;ratioP1;P1;durP2;ratioP2;P2;SDS_P1;SDS_P2;PMS_P1;PMS_P2;Temp;Humidity;BMP_temperature;BMP_pressure;BME280_temperature;BME280_humidity;BME280_pressure;Samples;Min_cycle;Max_cycle;Signal;HPM_P1;HPM_P2
2021/04/19 03:59:11;;;;;;;27.43;24.80;;;7.60;99.90;;;;;;5635854;23;20488;-70
2021/04/19 04:01:39;;;;;;;29.20;26.70;;;7.60;99.90;;;;;;5023040;28;20476;-70
2021/04/19 04:04:07;;;;;;;27.20;24.80;;;7.70;99.90;;;;;;5012448;28;20524;-69
2021/04/19 04:06:33;;;;;;;27.30;24.90;;;7.60;99.90;;;;;;5012421;28;20813;-69
2021/04/19 04:09:01;;;;;;;26.00;23.40;;;7.50;99.90;;;;;;5012792;28;20453;-69
2021/04/19 04:11:28;;;;;;;30.07;26.97;;;7.50;99.90;;;;;;5012614;28;20458;-69
2021/04/19 04:13:55;;;;;;;28.50;25.80;;;7.50;99.90;;;;;;5012312;28;20442;-69
2021/04/19 04:16:22;;;;;;;25.23;23.00;;;7.50;99.90;;;;;;5012098;28;20453;-69
2021/04/19 04:18:48;;;;;;;29.50;26.80;;;7.50;99.90;;;;;;5012195;28;20457;-69
2021/04/19 04:21:15;;;;;;;27.73;25.13;;;7.40;99.90;;;;;;5012507;28;20457;-69
2021/04/19 04:23:42;;;;;;;26.30;23.70;;;7.40;99.90;;;;;;5012158;28;20460;-68
2021/04/19 04:26:09;;;;;;;28.10;25.57;;;7.30;99.90;;;;;;5011894;28;20531;-69
2021/04/19 04:28:35;;;;;;;26.27;23.87;;;7.30;99.90;;;;;;5011883;28;20498;-69
2021/04/19 04:31:02;;;;;;;29.60;26.83;;;7.20;99.90;;;;;;5011922;28;20503;-69
2021/04/19 04:33:29;;;;;;;26.30;24.20;;;7.30;99.90;;;;;;5012142;28;20457;-69
2021/04/19 04:35:55;;;;;;;26.37;23.77;;;7.20;99.90;;;;;;5012170;28;20471;-69
2021/04/19 04:38:21;;;;;;;29.57;26.60;;;7.20;99.90;;;;;;5011577;28;20511;-69
2021/04/19 04:40:47;;;;;;;25.73;23.20;;;7.20;99.90;;;;;;5011668;28;20518;-68
2021/04/19 04:43:17;;;;;;;26.70;24.50;;;7.20;99.90;;;;;;5011839;28;20456;-67
2021/04/19 04:45:44;;;;;;;26.17;23.80;;;7.20;99.90;;;;;;5011808;28;20860;-67
2021/04/19 04:48:19;;;;;;;25.97;23.90;;;7.10;99.90;;;;;;5011928;28;20449;-69
2021/04/19 04:50:52;;;;;;;26.40;23.80;;;7.00;99.90;;;;;;5011863;28;20945;-70
2021/04/19 04:53:23;;;;;;;24.13;21.73;;;7.00;99.90;;;;;;5011745;28;20832;-69
2021/04/19 04:55:50;;;;;;;27.50;24.97;;;7.10;99.90;;;;;;5011070;28;20509;-69
2021/04/19 04:58:17;;;;;;;24.57;22.07;;;7.10;99.90;;;;;;5011298;28;20539;-71
2021/04/19 05:00:45;;;;;;;23.40;21.27;;;7.10;99.90;;;;;;5011439;28;20570;-70
2021/04/19 05:03:12;;;;;;;25.07;22.77;;;7.00;99.90;;;;;;5012020;28;20449;-69
2021/04/19 05:05:40;;;;;;;26.03;23.40;;;7.00;99.90;;;;;;5011551;28;20445;-70
2021/04/19 05:08:10;;;;;;;24.60;22.50;;;6.90;99.90;;;;;;5011332;28;20934;-69
2021/04/19 05:10:37;;;;;;;25.50;23.07;;;6.90;99.90;;;;;;5011414;28;20461;-70
2021/04/19 05:13:10;;;;;;;26.33;23.90;;;6.90;99.90;;;;;;5011373;28;20452;-69
2021/04/19 05:15:40;;;;;;;27.70;24.87;;;6.90;99.90;;;;;;5011486;28;20846;-69
2021/04/19 05:18:06;;;;;;;28.97;26.30;;;6.90;99.90;;;;;;5011264;28;20483;-69
2021/04/19 05:20:33;;;;;;;30.17;27.03;;;6.90;99.90;;;;;;5011340;28;20466;-66
2021/04/19 05:22:59;;;;;;;30.43;27.90;;;6.90;99.90;;;;;;5011310;28;20454;-68
2021/04/19 05:25:26;;;;;;;33.00;30.23;;;6.80;99.90;;;;;;5011641;28;20796;-69
2021/04/19 05:27:53;;;;;;;35.87;32.90;;;6.70;99.90;;;;;;5011355;28;20808;-69
2021/04/19 05:30:19;;;;;;;33.63;31.00;;;6.60;99.90;;;;;;5010950;28;20461;-70
2021/04/19 05:32:46;;;;;;;33.73;31.13;;;6.50;99.90;;;;;;5011348;28;20489;-70
2021/04/19 05:35:12;;;;;;;36.30;33.50;;;6.40;99.90;;;;;;5011196;28;20452;-71
2021/04/19 05:37:41;;;;;;;41.03;37.80;;;6.40;99.90;;;;;;5011100;28;20496;-71
2021/04/19 05:40:09;;;;;;;42.80;39.10;;;6.40;99.90;;;;;;5011268;28;20459;-72
2021/04/19 05:42:36;;;;;;;44.37;40.90;;;6.30;99.90;;;;;;5011174;28;20446;-72
2021/04/19 05:45:03;;;;;;;44.80;41.43;;;6.30;99.90;;;;;;5010961;28;20459;-72
2021/04/19 05:47:29;;;;;;;49.63;45.47;;;6.40;99.90;;;;;;5011240;28;20463;-73
2021/04/19 05:49:56;;;;;;;47.47;43.87;;;6.40;99.90;;;;;;5011164;28;20454;-71
2021/04/19 05:52:24;;;;;;;45.20;41.60;;;6.40;99.90;;;;;;5010955;28;20526;-70
2021/04/19 05:54:50;;;;;;;47.90;44.27;;;6.30;99.90;;;;;;5010987;28;20458;-69
2021/04/19 05:57:26;;;;;;;49.40;45.60;;;6.30;99.90;;;;;;5010838;28;20497;-70
2021/04/19 06:00:02;;;;;;;49.50;45.50;;;6.30;99.90;;;;;;5010764;28;20521;-69
2021/04/19 06:02:34;;;;;;;49.10;44.70;;;6.40;99.90;;;;;;5011130;28;20458;-70
2021/04/19 06:05:04;;;;;;;51.70;47.80;;;6.30;99.90;;;;;;5011128;28;20695;-71
2021/04/19 06:07:40;;;;;;;52.67;48.67;;;6.30;99.90;;;;;;5013772;28;20478;-71
2021/04/19 06:10:12;;;;;;;51.00;46.60;;;6.30;99.90;;;;;;5014826;28;20454;-71
2021/04/19 06:12:44;;;;;;;51.87;48.00;;;6.30;99.90;;;;;;5014622;28;20505;-70
2021/04/19 06:15:15;;;;;;;53.47;49.43;;;6.30;99.90;;;;;;5014668;28;20793;-70
2021/04/19 06:17:45;;;;;;;56.83;52.57;;;6.30;99.90;;;;;;5014767;28;20488;-70
2021/04/19 06:20:14;;;;;;;53.80;50.00;;;6.30;99.90;;;;;;5015018;28;20823;-70
2021/04/19 06:22:41;;;;;;;55.87;51.23;;;6.40;99.90;;;;;;5014571;28;20448;-70
2021/04/19 06:25:10;;;;;;;54.77;50.77;;;6.40;99.90;;;;;;5014233;28;20442;-69
2021/04/19 06:27:36;;;;;;;55.67;51.57;;;6.40;99.90;;;;;;5014171;28;21060;-69
2021/04/19 06:30:17;;;;;;;57.07;52.20;;;6.40;99.90;;;;;;5014605;28;20455;-70
2021/04/19 06:32:44;;;;;;;55.80;51.70;;;6.50;99.90;;;;;;5014526;28;20467;-71
2021/04/19 06:35:12;;;;;;;57.30;52.53;;;6.50;99.90;;;;;;5014179;28;20454;-71
2021/04/19 06:37:38;;;;;;;55.37;51.30;;;6.40;99.90;;;;;;5013739;28;20511;-71
2021/04/19 15:07:48;;;;;;;43.13;40.33;;;12.20;99.90;;;;;;5946532;23;20396;-73
2021/04/19 15:10:14;;;;;;;45.83;42.73;;;11.90;99.90;;;;;;5048244;28;20491;-74
2021/04/19 15:12:41;;;;;;;46.73;43.17;;;11.80;99.90;;;;;;5053356;28;20450;-74
2021/04/19 15:15:08;;;;;;;43.60;40.53;;;11.50;99.90;;;;;;5046594;28;20447;-73
2021/04/19 15:17:35;;;;;;;45.20;42.00;;;11.40;99.90;;;;;;5053174;28;20488;-73
2021/04/19 15:20:01;;;;;;;46.30;42.77;;;11.20;99.90;;;;;;5053349;28;20448;-73
2021/04/19 15:22:28;;;;;;;46.80;43.10;;;11.10;99.90;;;;;;5053130;28;20447;-74
2021/04/19 15:24:56;;;;;;;45.93;42.53;;;11.10;99.90;;;;;;5052848;28;20459;-74
2021/04/19 15:27:22;;;;;;;46.23;43.13;;;11.10;99.90;;;;;;5052861;28;20451;-74
2021/04/19 15:29:49;;;;;;;47.50;43.93;;;11.20;99.90;;;;;;5052998;28;20545;-74
2021/04/19 15:32:16;;;;;;;48.40;44.90;;;11.30;99.90;;;;;;5053108;28;20452;-74
2021/04/19 15:34:43;;;;;;;45.97;42.70;;;11.40;99.90;;;;;;5052946;28;20450;-74
2021/04/19 15:37:09;;;;;;;46.70;43.30;;;11.30;99.90;;;;;;5052701;28;20462;-73
2021/04/19 15:39:35;;;;;;;45.60;42.20;;;11.30;99.90;;;;;;5051742;28;20562;-73
2021/04/19 15:42:03;;;;;;;42.87;39.77;;;11.40;99.90;;;;;;5035343;28;20468;-73
2021/04/19 15:44:29;;;;;;;39.80;36.93;;;11.50;99.90;;;;;;5052745;28;20448;-73
2021/04/19 15:46:55;;;;;;;40.67;37.97;;;11.40;99.90;;;;;;5043384;28;21193;-73
2021/04/19 15:49:21;;;;;;;41.13;38.13;;;11.40;99.90;;;;;;5032652;28;20457;-73
2021/04/19 15:51:48;;;;;;;40.30;37.47;;;11.40;99.90;;;;;;5032635;28;20468;-73
2021/04/19 15:54:14;;;;;;;39.27;36.33;;;11.40;99.90;;;;;;5032840;28;20453;-73
2021/04/19 15:56:40;;;;;;;37.37;35.03;;;11.50;99.90;;;;;;5032659;28;20452;-73
2021/04/19 15:59:08;;;;;;;39.20;36.07;;;11.40;99.90;;;;;;5028652;28;20489;-70
2021/04/19 16:01:34;;;;;;;37.40;34.80;;;11.20;99.90;;;;;;5023821;28;20479;-71
2021/04/19 16:04:01;;;;;;;37.03;34.30;;;11.30;99.90;;;;;;5020302;28;20453;-71
2021/04/19 16:06:27;;;;;;;36.83;34.23;;;11.50;99.90;;;;;;5015896;28;20476;-71
2021/04/19 16:08:53;;;;;;;33.60;31.53;;;11.50;99.90;;;;;;5049883;28;20524;-71
2021/04/19 16:11:20;;;;;;;33.83;31.57;;;11.40;99.90;;;;;;5052437;28;20866;-69
2021/04/19 16:13:46;;;;;;;30.83;28.93;;;11.30;99.90;;;;;;5052429;28;20505;-69
2021/04/19 16:16:13;;;;;;;30.90;28.90;;;11.40;99.90;;;;;;5052204;28;20444;-69
2021/04/19 16:18:39;;;;;;;30.37;28.30;;;11.50;99.90;;;;;;5052135;28;20492;-70
2021/04/19 16:21:06;;;;;;;31.30;29.07;;;11.60;99.90;;;;;;5052144;28;20459;-70
2021/04/19 16:23:33;;;;;;;29.63;27.43;;;11.70;99.90;;;;;;5052018;28;20813;-69
2021/04/19 16:25:59;;;;;;;29.37;27.27;;;11.80;99.90;;;;;;5052139;28;20451;-70
2021/04/19 16:28:25;;;;;;;29.90;27.60;;;11.90;99.90;;;;;;5052149;28;20444;-70
2021/04/19 16:30:51;;;;;;;30.80;28.10;;;12.00;99.90;;;;;;5051996;28;20478;-71
2021/04/19 16:33:19;;;;;;;30.03;27.53;;;12.10;99.90;;;;;;5051887;28;20961;-70
2021/04/19 16:35:45;;;;;;;28.93;26.60;;;12.00;99.90;;;;;;5052044;28;20467;-71
2021/04/19 16:38:11;;;;;;;31.93;28.83;;;12.00;99.90;;;;;;5051703;28;20480;-71
2021/04/19 16:40:37;;;;;;;28.87;26.67;;;11.90;99.90;;;;;;5051823;28;20553;-71
2021/04/19 16:43:06;;;;;;;31.60;28.93;;;12.10;99.90;;;;;;5051763;28;20955;-70
2021/04/19 16:45:32;;;;;;;30.37;27.90;;;12.20;99.90;;;;;;5051791;28;20451;-71
2021/04/19 16:47:59;;;;;;;29.27;26.87;;;12.30;99.90;;;;;;5051789;28;20440;-71
2021/04/19 16:50:26;;;;;;;29.80;27.37;;;12.40;99.90;;;;;;5051344;28;20448;-70
2021/04/19 16:52:53;;;;;;;30.70;28.10;;;12.50;99.90;;;;;;5051063;28;21111;-71
2021/04/19 16:55:19;;;;;;;29.53;27.00;;;12.50;99.90;;;;;;5051662;28;20452;-71
2021/04/19 16:57:45;;;;;;;30.47;27.90;;;12.50;99.90;;;;;;5051454;28;20487;-70
2021/04/19 17:00:15;;;;;;;29.70;27.40;;;12.60;99.90;;;;;;5050910;28;20474;-71
2021/04/19 17:02:42;;;;;;;28.80;26.50;;;12.50;99.90;;;;;;5051586;28;20471;-71
2021/04/19 17:05:10;;;;;;;30.87;28.00;;;12.40;99.90;;;;;;5051174;28;20504;-71
2021/04/19 17:07:37;;;;;;;29.87;27.40;;;12.30;99.90;;;;;;5050401;28;20464;-71
2021/04/19 17:10:04;;;;;;;28.27;25.77;;;12.20;99.90;;;;;;5050613;28;20478;-72
2021/04/19 17:12:30;;;;;;;35.60;32.00;;;12.00;99.90;;;;;;5051206;28;20990;-71
2021/04/19 17:14:57;;;;;;;35.23;31.73;;;11.90;99.90;;;;;;5050595;28;20983;-70
2021/04/19 17:17:23;;;;;;;34.83;31.53;;;11.80;99.90;;;;;;5050679;28;20462;-70
2021/04/19 17:19:49;;;;;;;31.80;28.83;;;11.60;99.90;;;;;;5050705;28;20984;-70
2021/04/19 17:22:16;;;;;;;35.60;32.10;;;11.50;99.90;;;;;;5050647;28;20466;-70
2021/04/19 17:24:43;;;;;;;35.17;31.97;;;11.40;99.90;;;;;;5050697;28;20451;-69
2021/04/19 17:27:09;;;;;;;39.17;35.40;;;11.20;99.90;;;;;;5050521;28;20451;-71
2021/04/19 17:29:35;;;;;;;37.00;33.47;;;11.00;99.90;;;;;;5050599;28;20523;-70
2021/04/19 17:32:03;;;;;;;37.00;33.27;;;10.90;99.90;;;;;;5050422;28;20454;-69
2021/04/19 17:34:30;;;;;;;38.40;34.80;;;10.80;99.90;;;;;;5050822;28;20465;-69
2021/04/19 17:36:57;;;;;;;35.77;32.17;;;10.70;99.90;;;;;;5050524;28;20842;-69
2021/04/19 17:39:23;;;;;;;41.93;37.70;;;10.60;99.90;;;;;;5050332;28;20490;-70
2021/04/19 17:41:51;;;;;;;41.00;36.87;;;10.40;99.90;;;;;;5050500;28;20840;-70
2021/04/19 17:44:17;;;;;;;39.53;35.43;;;10.30;99.90;;;;;;5050312;28;20462;-70
2021/04/19 17:46:45;;;;;;;38.43;34.60;;;10.10;99.90;;;;;;5050532;28;20478;-70
2021/04/19 17:49:11;;;;;;;42.10;37.53;;;10.00;99.90;;;;;;5050224;28;20455;-70
2021/04/19 17:51:38;;;;;;;39.90;35.57;;;9.90;99.90;;;;;;5050194;28;20503;-70
2021/04/19 17:54:04;;;;;;;37.70;33.90;;;9.80;99.90;;;;;;5050214;28;20459;-70
2021/04/19 17:56:31;;;;;;;40.23;36.03;;;9.80;99.90;;;;;;5050590;28;20816;-70
2021/04/19 17:58:58;;;;;;;39.47;35.47;;;9.70;99.90;;;;;;5050204;28;20491;-70
2021/04/19 18:01:24;;;;;;;41.10;36.63;;;9.60;99.90;;;;;;5050546;28;20508;-70
2021/04/19 18:03:51;;;;;;;39.53;35.43;;;9.50;99.90;;;;;;5053476;28;20448;-70
2021/04/19 18:06:17;;;;;;;37.03;33.10;;;9.40;99.90;;;;;;5054173;28;20506;-71
2021/04/19 18:08:43;;;;;;;41.00;35.47;;;9.20;99.90;;;;;;5054210;28;20473;-70
2021/04/19 18:11:10;;;;;;;37.90;33.60;;;9.10;99.90;;;;;;5053859;28;20962;-71
2021/04/19 18:13:36;;;;;;;43.17;38.47;;;9.00;99.90;;;;;;5054345;28;21169;-71
2021/04/19 18:16:03;;;;;;;41.93;37.43;;;8.80;99.90;;;;;;5053485;28;20505;-68
2021/04/19 18:18:30;;;;;;;42.90;37.60;;;8.70;99.90;;;;;;5054105;28;20492;-71
2021/04/19 18:20:56;;;;;;;41.77;37.10;;;8.70;99.90;;;;;;5054078;28;20937;-71
2021/04/19 18:23:22;;;;;;;45.60;39.00;;;8.60;99.90;;;;;;5053991;28;20456;-69
2021/04/19 18:25:49;;;;;;;47.67;38.67;;;8.60;99.90;;;;;;5053884;28;20517;-69
2021/04/19 18:28:16;;;;;;;46.43;38.83;;;8.50;99.90;;;;;;5053852;28;20447;-69
2021/04/19 18:30:43;;;;;;;42.07;37.50;;;8.50;99.90;;;;;;5053947;28;20452;-69
2021/04/19 18:33:11;;;;;;;42.10;37.40;;;8.40;99.90;;;;;;5053755;28;20829;-71
2021/04/19 18:35:37;;;;;;;48.07;38.90;;;8.30;99.90;;;;;;5053972;28;20451;-71
2021/04/19 18:38:04;;;;;;;43.90;38.70;;;8.30;99.90;;;;;;5053429;28;20504;-71
2021/04/19 18:40:30;;;;;;;54.70;42.23;;;8.20;99.90;;;;;;5053930;28;20448;-71
2021/04/19 18:43:01;;;;;;;44.60;38.23;;;8.10;99.90;;;;;;5053622;28;20957;-71
2021/04/19 18:45:28;;;;;;;47.97;40.67;;;8.00;99.90;;;;;;5053839;28;20962;-70
2021/04/19 18:47:55;;;;;;;47.40;41.60;;;8.00;99.90;;;;;;5053717;28;20454;-70
2021/04/19 18:50:22;;;;;;;48.03;42.10;;;8.00;99.90;;;;;;5053500;28;20459;-70
2021/04/19 18:52:48;;;;;;;46.40;39.80;;;8.00;99.90;;;;;;5053503;28;20474;-71
2021/04/19 18:55:15;;;;;;;51.20;42.97;;;8.00;99.90;;;;;;5053483;28;20444;-69
2021/04/19 18:57:41;;;;;;;50.77;40.33;;;7.90;99.90;;;;;;5053517;28;20488;-70
2021/04/19 19:00:11;;;;;;;48.83;43.63;;;7.90;99.90;;;;;;5053337;28;20458;-70
2021/04/19 19:02:38;;;;;;;47.63;41.87;;;7.80;99.90;;;;;;5053490;28;20483;-70
2021/04/19 19:05:06;;;;;;;47.60;39.97;;;7.70;99.90;;;;;;5053117;28;20513;-70
2021/04/19 19:07:33;;;;;;;54.07;43.13;;;7.70;99.90;;;;;;5053061;28;20827;-69
2021/04/19 19:09:59;;;;;;;48.70;43.27;;;7.60;99.90;;;;;;5053877;28;21019;-70
2021/04/19 19:12:25;;;;;;;54.93;42.93;;;7.60;99.90;;;;;;5057318;28;20452;-71
2021/04/19 19:14:52;;;;;;;51.00;45.27;;;7.50;99.90;;;;;;5052136;28;20444;-70
2021/04/19 19:17:18;;;;;;;50.27;42.50;;;7.50;99.90;;;;;;5052816;28;20459;-70
2021/04/19 19:19:44;;;;;;;49.07;42.40;;;7.50;99.90;;;;;;5053246;28;20992;-69
2021/04/19 19:22:10;;;;;;;51.50;44.77;;;7.50;99.90;;;;;;5052865;28;20458;-70
2021/04/19 19:24:37;;;;;;;50.50;45.23;;;7.50;99.90;;;;;;5053028;28;20815;-70
2021/04/19 19:27:05;;;;;;;53.43;45.40;;;7.50;99.90;;;;;;5052802;28;20953;-68
2021/04/19 19:29:31;;;;;;;57.80;45.43;;;7.50;99.90;;;;;;5052917;28;20439;-69
2021/04/19 19:31:58;;;;;;;57.13;46.57;;;7.50;99.90;;;;;;5052701;28;20451;-69
2021/04/19 19:34:25;;;;;;;53.73;46.37;;;7.40;99.90;;;;;;5052759;28;20514;-69
2021/04/19 19:36:51;;;;;;;57.60;45.53;;;7.40;99.90;;;;;;5052720;28;20471;-70
2021/04/19 19:39:18;;;;;;;61.40;46.27;;;7.30;99.90;;;;;;5052406;28;20514;-69
2021/04/19 19:41:45;;;;;;;53.20;46.20;;;7.30;99.90;;;;;;5052913;28;20793;-69
2021/04/19 19:44:11;;;;;;;60.03;45.60;;;7.30;99.90;;;;;;5052441;28;20462;-70
2021/04/19 19:46:37;;;;;;;57.97;49.00;;;7.40;99.90;;;;;;5052450;28;20505;-70
2021/04/19 19:49:04;;;;;;;58.50;45.47;;;7.30;99.90;;;;;;5052353;28;20483;-70
2021/04/19 19:51:30;;;;;;;56.63;46.67;;;7.20;99.90;;;;;;5052579;28;20504;-71
2021/04/19 19:53:56;;;;;;;60.17;48.00;;;7.20;99.90;;;;;;5052347;28;20526;-70
2021/04/19 19:56:23;;;;;;;60.03;45.57;;;7.30;99.90;;;;;;5052464;28;20953;-71
2021/04/19 19:58:50;;;;;;;59.40;46.43;;;7.40;99.90;;;;;;5052245;28;20486;-72
2021/04/19 20:01:16;;;;;;;61.33;47.57;;;7.40;99.90;;;;;;5052293;28;20879;-70
2021/04/19 20:03:42;;;;;;;58.20;47.30;;;7.40;99.90;;;;;;5052364;28;20465;-68
2021/04/19 20:06:08;;;;;;;69.07;49.60;;;7.20;99.90;;;;;;5051870;28;20465;-68
2021/04/19 20:08:34;;;;;;;51.70;46.00;;;7.10;99.90;;;;;;5051729;28;20479;-71
2021/04/19 20:11:01;;;;;;;60.40;48.23;;;7.20;99.90;;;;;;5051962;28;20941;-70
2021/04/19 20:13:27;;;;;;;56.23;49.00;;;7.20;99.90;;;;;;5052044;28;20463;-68
2021/04/19 20:15:54;;;;;;;55.47;48.30;;;7.20;99.90;;;;;;5051941;28;20980;-68
2021/04/19 20:18:20;;;;;;;65.73;49.07;;;7.10;99.90;;;;;;5051747;28;20497;-68
2021/04/19 20:21:06;;;;;;;65.57;49.23;;;6.90;99.90;;;;;;5051886;28;20467;-70
2021/04/19 20:23:33;;;;;;;59.43;48.77;;;6.90;99.90;;;;;;5042134;28;20473;-71
2021/04/19 20:26:01;;;;;;;62.40;47.40;;;6.80;99.90;;;;;;5039069;28;20457;-73
2021/04/19 20:28:27;;;;;;;61.87;47.87;;;6.80;99.90;;;;;;5032252;28;20812;-74
2021/04/19 20:30:54;;;;;;;60.77;47.47;;;6.70;99.90;;;;;;5032056;28;20463;-73
2021/04/19 20:33:21;;;;;;;56.50;47.00;;;6.60;99.90;;;;;;5031966;28;20444;-73
2021/04/19 20:35:48;;;;;;;57.77;47.17;;;6.50;99.90;;;;;;5032113;28;20447;-72
2021/04/19 20:38:15;;;;;;;62.93;53.87;;;6.50;99.90;;;;;;5032411;28;20529;-73
2021/04/19 20:40:41;;;;;;;58.60;48.60;;;6.40;99.90;;;;;;5031963;28;20456;-73
2021/04/19 20:43:07;;;;;;;60.03;48.87;;;6.30;99.90;;;;;;5031796;28;20459;-73
2021/04/19 20:45:34;;;;;;;62.47;51.83;;;6.20;99.90;;;;;;5031859;28;20785;-73
2021/04/19 20:48:01;;;;;;;57.23;49.33;;;6.10;99.90;;;;;;5031696;28;20448;-72
2021/04/19 20:50:28;;;;;;;67.20;49.43;;;6.10;99.90;;;;;;5041646;28;20450;-73
2021/04/19 20:52:54;;;;;;;66.40;51.80;;;6.00;99.90;;;;;;5040136;28;20529;-72
2021/04/19 20:55:21;;;;;;;64.30;49.10;;;6.10;99.90;;;;;;5039815;28;20569;-72
2021/04/19 20:57:47;;;;;;;67.47;51.43;;;6.10;99.90;;;;;;5041025;28;20478;-72
2021/04/19 21:00:15;;;;;;;69.27;52.77;;;6.10;99.90;;;;;;5041581;28;20448;-72
2021/04/19 21:02:43;;;;;;;84.13;54.93;;;6.10;99.90;;;;;;5046060;28;20454;-72
2021/04/19 21:05:12;;;;;;;74.20;51.47;;;6.20;99.90;;;;;;5037819;28;20448;-72
2021/04/19 21:07:39;;;;;;;72.70;53.50;;;6.20;99.90;;;;;;5046840;28;20460;-71
2021/04/19 21:10:11;;;;;;;70.27;54.00;;;6.30;99.90;;;;;;5039024;28;20470;-72
2021/04/19 21:12:38;;;;;;;74.43;55.13;;;6.30;99.90;;;;;;5039495;28;21268;-71
2021/04/19 21:15:05;;;;;;;74.57;54.00;;;6.40;99.90;;;;;;5040927;28;20449;-71
2021/04/19 21:17:31;;;;;;;77.80;56.80;;;6.40;99.90;;;;;;5039804;28;20442;-71
2021/04/19 21:19:58;;;;;;;74.80;53.03;;;6.50;99.90;;;;;;5039340;28;20818;-71
2021/04/19 21:22:25;;;;;;;63.37;51.30;;;6.50;99.90;;;;;;5040819;28;20438;-72
